sensor_id;sensor_type;location;lat;lon;timestamp;temperature;humidity
16441;DHT22;8330;-33.858;151.184;2023-06-19T00:01:11;11.60;99.90
16441;DHT22;8330;-33.858;151.184;2023-06-19T00:03:44;11.80;99.90
16441;DHT22;8330;-33.858;151.184;2023-06-19T00:06:15;11.80;99.90
16441;DHT22;8330;-33.858;151.184;2023-06-19T00:08:46;11.80;99.90
16441;DHT22;8330;-33.858;151.184;2023-06-19T00:11:19;12.00;99.90
16441;DHT22;8330;-33.858;151.184;2023-06-19T00:13:55;12.00;99.90
16441;DHT22;8330;-33.858;151.184;2023-06-19T00:16:29;12.10;99.90
16441;DHT22;8330;-33.858;151.184;2023-06-19T00:19:00;12.20;99.90
16441;DHT22;8330;-33.858;151.184;2023-06-19T00:21:31;12.30;99.90
16441;DHT22;8330;-33.858;151.184;2023-06-19T00:24:03;12.50;99.90
16441;DHT22;8330;-33.858;151.184;2023-06-19T00:26:36;12.60;99.90
16441;DHT22;8330;-33.858;151.184;2023-06-19T00:29:09;12.60;99.90
16441;DHT22;8330;-33.858;151.184;2023-06-19T00:31:40;12.70;99.90
16441;DHT22;8330;-33.858;151.184;2023-06-19T00:34:12;13.00;99.90
16441;DHT22;8330;-33.858;151.184;2023-06-19T00:36:43;13.00;99.90
16441;DHT22;8330;-33.858;151.184;2023-06-19T00:39:15;13.10;99.90
16441;DHT22;8330;-33.858;151.184;2023-06-19T00:41:46;13.10;99.90
16441;DHT22;8330;-33.858;151.184;2023-06-19T00:44:19;13.30;99.90
16441;DHT22;8330;-33.858;151.184;2023-06-19T00:46:55;13.40;99.90
16441;DHT22;8330;-33.858;151.184;2023-06-19T00:49:28;13.60;99.90
16441;DHT22;8330;-33.858;151.184;2023-06-19T00:52:01;13.70;99.90
16441;DHT22;8330;-33.858;151.184;2023-06-19T00:54:32;13.70;99.90
16441;DHT22;8330;-33.858;151.184;2023-06-19T00:57:05;13.80;99.90
16441;DHT22;8330;-33.858;151.184;2023-06-19T00:59:40;13.80;99.90
16441;DHT22;8330;-33.858;151.184;2023-06-19T01:02:11;13.80;99.90
16441;DHT22;8330;-33.858;151.184;2023-06-19T01:04:43;13.80;99.90
16441;DHT22;8330;-33.858;151.184;2023-06-19T01:07:16;13.80;99.90
16441;DHT22;8330;-33.858;151.184;2023-06-19T01:09:59;13.90;99.90
16441;DHT22;8330;-33.858;151.184;2023-06-19T01:12:37;14.00;99.90
16441;DHT22;8330;-33.858;151.184;2023-06-19T01:15:13;14.00;99.90
16441;DHT22;8330;-33.858;151.184;2023-06-19T01:17:47;14.00;99.90
16441;DHT22;8330;-33.858;151.184;2023-06-19T01:20:19;14.10;99.90
16441;DHT22;8330;-33.858;151.184;2023-06-19T01:22:53;14.30;99.90
16441;DHT22;8330;-33.858;151.184;2023-06-19T01:25:25;14.40;99.90
16441;DHT22;8330;-33.858;151.184;2023-06-19T01:27:56;14.50;99.90
16441;DHT22;8330;-33.858;151.184;2023-06-19T01:30:28;14.50;98.50
16441;DHT22;8330;-33.858;151.184;2023-06-19T01:33:03;14.60;98.60
16441;DHT22;8330;-33.858;151.184;2023-06-19T01:35:40;14.70;98.20
16441;DHT22;8330;-33.858;151.184;2023-06-19T01:38:16;14.80;97.80
16441;DHT22;8330;-33.858;151.184;2023-06-19T01:40:48;14.90;97.20
16441;DHT22;8330;-33.858;151.184;2023-06-19T01:43:20;15.00;96.40
16441;DHT22;8330;-33.858;151.184;2023-06-19T01:45:52;15.10;96.10
16441;DHT22;8330;-33.858;151.184;2023-06-19T01:48:24;15.20;94.10
16441;DHT22;8330;-33.858;151.184;2023-06-19T01:50:56;15.30;92.30
16441;DHT22;8330;-33.858;151.184;2023-06-19T01:53:31;15.40;90.70
16441;DHT22;8330;-33.858;151.184;2023-06-19T01:56:04;15.50;89.20
16441;DHT22;8330;-33.858;151.184;2023-06-19T01:58:35;15.60;88.50
16441;DHT22;8330;-33.858;151.184;2023-06-19T02:01:08;15.70;88.30
16441;DHT22;8330;-33.858;151.184;2023-06-19T02:03:39;15.80;87.50
16441;DHT22;8330;-33.858;151.184;2023-06-19T02:06:10;15.80;88.90
16441;DHT22;8330;-33.858;151.184;2023-06-19T02:08:44;15.90;85.80
16441;DHT22;8330;-33.858;151.184;2023-06-19T02:11:17;15.90;86.80
16441;DHT22;8330;-33.858;151.184;2023-06-19T02:13:49;16.00;85.20
16441;DHT22;8330;-33.858;151.184;2023-06-19T02:16:22;16.00;85.50
16441;DHT22;8330;-33.858;151.184;2023-06-19T02:18:56;16.00;81.10
16441;DHT22;8330;-33.858;151.184;2023-06-19T02:21:28;15.80;79.50
16441;DHT22;8330;-33.858;151.184;2023-06-19T02:24:05;15.80;81.40
16441;DHT22;8330;-33.858;151.184;2023-06-19T02:26:36;15.90;77.50
16441;DHT22;8330;-33.858;151.184;2023-06-19T02:29:09;16.00;75.10
16441;DHT22;8330;-33.858;151.184;2023-06-19T02:31:40;16.00;75.70
16441;DHT22;8330;-33.858;151.184;2023-06-19T02:34:12;16.00;75.00
16441;DHT22;8330;-33.858;151.184;2023-06-19T02:36:45;16.00;73.30
16441;DHT22;8330;-33.858;151.184;2023-06-19T02:39:18;16.00;72.80
16441;DHT22;8330;-33.858;151.184;2023-06-19T02:41:50;16.10;72.90
16441;DHT22;8330;-33.858;151.184;2023-06-19T02:44:21;16.10;70.30
16441;DHT22;8330;-33.858;151.184;2023-06-19T02:46:53;16.10;71.60
16441;DHT22;8330;-33.858;151.184;2023-06-19T02:49:24;16.20;72.20
16441;DHT22;8330;-33.858;151.184;2023-06-19T02:51:55;16.20;72.30
16441;DHT22;8330;-33.858;151.184;2023-06-19T02:54:32;16.30;72.50
16441;DHT22;8330;-33.858;151.184;2023-06-19T02:57:03;16.30;71.30
16441;DHT22;8330;-33.858;151.184;2023-06-19T02:59:34;16.30;71.50
16441;DHT22;8330;-33.858;151.184;2023-06-19T03:02:07;16.20;71.70
16441;DHT22;8330;-33.858;151.184;2023-06-19T03:04:39;16.20;72.20
16441;DHT22;8330;-33.858;151.184;2023-06-19T03:07:10;16.40;73.80
16441;DHT22;8330;-33.858;151.184;2023-06-19T03:09:45;16.50;72.20
16441;DHT22;8330;-33.858;151.184;2023-06-19T03:12:16;16.60;71.80
16441;DHT22;8330;-33.858;151.184;2023-06-19T03:14:47;16.60;72.30
16441;DHT22;8330;-33.858;151.184;2023-06-19T03:17:18;16.70;71.90
16441;DHT22;8330;-33.858;151.184;2023-06-19T03:19:49;16.70;70.50
16441;DHT22;8330;-33.858;151.184;2023-06-19T03:22:21;16.70;70.20
16441;DHT22;8330;-33.858;151.184;2023-06-19T03:24:56;16.80;69.20
16441;DHT22;8330;-33.858;151.184;2023-06-19T03:27:27;16.80;68.10
16441;DHT22;8330;-33.858;151.184;2023-06-19T03:29:58;16.80;70.00
16441;DHT22;8330;-33.858;151.184;2023-06-19T03:32:31;16.90;67.10
16441;DHT22;8330;-33.858;151.184;2023-06-19T03:35:03;16.80;68.90
16441;DHT22;8330;-33.858;151.184;2023-06-19T03:37:35;16.90;66.50
16441;DHT22;8330;-33.858;151.184;2023-06-19T03:40:11;16.80;66.90
16441;DHT22;8330;-33.858;151.184;2023-06-19T03:42:42;16.80;66.10
16441;DHT22;8330;-33.858;151.184;2023-06-19T03:45:13;16.80;66.40
16441;DHT22;8330;-33.858;151.184;2023-06-19T03:47:45;16.90;67.40
16441;DHT22;8330;-33.858;151.184;2023-06-19T03:50:16;17.00;66.90
16441;DHT22;8330;-33.858;151.184;2023-06-19T03:52:47;17.00;65.90
16441;DHT22;8330;-33.858;151.184;2023-06-19T03:55:20;17.10;66.60
16441;DHT22;8330;-33.858;151.184;2023-06-19T03:57:51;17.10;66.60
16441;DHT22;8330;-33.858;151.184;2023-06-19T04:00:23;17.10;65.50
16441;DHT22;8330;-33.858;151.184;2023-06-19T04:02:56;17.20;67.00
16441;DHT22;8330;-33.858;151.184;2023-06-19T04:05:27;17.10;64.90
16441;DHT22;8330;-33.858;151.184;2023-06-19T04:07:58;17.20;67.00
16441;DHT22;8330;-33.858;151.184;2023-06-19T04:10:31;17.10;65.10
16441;DHT22;8330;-33.858;151.184;2023-06-19T04:13:04;17.10;65.50
16441;DHT22;8330;-33.858;151.184;2023-06-19T04:15:36;17.10;66.10
16441;DHT22;8330;-33.858;151.184;2023-06-19T04:18:07;17.10;66.60
16441;DHT22;8330;-33.858;151.184;2023-06-19T04:20:38;17.10;66.10
16441;DHT22;8330;-33.858;151.184;2023-06-19T04:23:10;17.20;65.70
16441;DHT22;8330;-33.858;151.184;2023-06-19T04:25:43;17.20;65.60
16441;DHT22;8330;-33.858;151.184;2023-06-19T04:28:14;17.20;66.00
16441;DHT22;8330;-33.858;151.184;2023-06-19T04:30:45;17.20;66.50
16441;DHT22;8330;-33.858;151.184;2023-06-19T04:33:16;17.30;65.70
16441;DHT22;8330;-33.858;151.184;2023-06-19T04:35:49;17.20;67.10
16441;DHT22;8330;-33.858;151.184;2023-06-19T04:38:20;17.20;67.10
16441;DHT22;8330;-33.858;151.184;2023-06-19T04:40:54;17.10;67.00
16441;DHT22;8330;-33.858;151.184;2023-06-19T04:43:25;17.10;67.50
16441;DHT22;8330;-33.858;151.184;2023-06-19T04:45:56;17.20;68.40
16441;DHT22;8330;-33.858;151.184;2023-06-19T04:48:31;17.20;67.30
16441;DHT22;8330;-33.858;151.184;2023-06-19T04:51:04;17.30;67.90
16441;DHT22;8330;-33.858;151.184;2023-06-19T04:53:35;17.30;68.70
16441;DHT22;8330;-33.858;151.184;2023-06-19T04:56:10;17.30;65.60
16441;DHT22;8330;-33.858;151.184;2023-06-19T04:58:41;17.30;67.20
16441;DHT22;8330;-33.858;151.184;2023-06-19T05:01:15;17.40;63.60
16441;DHT22;8330;-33.858;151.184;2023-06-19T05:03:50;17.40;59.00
16441;DHT22;8330;-33.858;151.184;2023-06-19T05:06:21;17.40;56.70
16441;DHT22;8330;-33.858;151.184;2023-06-19T05:08:54;17.50;57.70
16441;DHT22;8330;-33.858;151.184;2023-06-19T05:11:28;17.60;57.50
16441;DHT22;8330;-33.858;151.184;2023-06-19T05:13:59;17.60;58.40
16441;DHT22;8330;-33.858;151.184;2023-06-19T05:16:32;17.50;56.70
16441;DHT22;8330;-33.858;151.184;2023-06-19T05:19:04;17.60;55.60
16441;DHT22;8330;-33.858;151.184;2023-06-19T05:21:37;17.60;54.70
16441;DHT22;8330;-33.858;151.184;2023-06-19T05:24:08;17.60;56.00
16441;DHT22;8330;-33.858;151.184;2023-06-19T05:26:41;17.60;55.20
16441;DHT22;8330;-33.858;151.184;2023-06-19T05:29:12;17.60;55.80
16441;DHT22;8330;-33.858;151.184;2023-06-19T05:31:43;17.50;56.30
16441;DHT22;8330;-33.858;151.184;2023-06-19T05:34:16;17.50;56.50
16441;DHT22;8330;-33.858;151.184;2023-06-19T05:36:48;17.50;56.90
16441;DHT22;8330;-33.858;151.184;2023-06-19T05:39:19;17.60;57.10
16441;DHT22;8330;-33.858;151.184;2023-06-19T05:41:53;17.60;57.40
16441;DHT22;8330;-33.858;151.184;2023-06-19T05:44:24;17.50;57.10
16441;DHT22;8330;-33.858;151.184;2023-06-19T05:46:55;17.40;57.70
16441;DHT22;8330;-33.858;151.184;2023-06-19T05:49:26;17.40;57.30
16441;DHT22;8330;-33.858;151.184;2023-06-19T05:51:58;17.40;56.80
16441;DHT22;8330;-33.858;151.184;2023-06-19T05:54:29;17.40;57.00
16441;DHT22;8330;-33.858;151.184;2023-06-19T05:57:04;17.40;56.90
16441;DHT22;8330;-33.858;151.184;2023-06-19T05:59:37;17.40;57.00
16441;DHT22;8330;-33.858;151.184;2023-06-19T06:02:10;17.40;57.10
16441;DHT22;8330;-33.858;151.184;2023-06-19T06:04:41;17.40;57.50
16441;DHT22;8330;-33.858;151.184;2023-06-19T06:07:12;17.40;57.50
16441;DHT22;8330;-33.858;151.184;2023-06-19T06:09:43;17.40;57.80
16441;DHT22;8330;-33.858;151.184;2023-06-19T06:12:16;17.40;58.60
16441;DHT22;8330;-33.858;151.184;2023-06-19T06:14:48;17.30;58.30
16441;DHT22;8330;-33.858;151.184;2023-06-19T06:17:19;17.30;58.30
16441;DHT22;8330;-33.858;151.184;2023-06-19T06:19:50;17.30;59.10
16441;DHT22;8330;-33.858;151.184;2023-06-19T06:22:21;17.30;59.10
16441;DHT22;8330;-33.858;151.184;2023-06-19T06:24:52;17.30;60.10
16441;DHT22;8330;-33.858;151.184;2023-06-19T06:27:28;17.20;60.20
16441;DHT22;8330;-33.858;151.184;2023-06-19T06:30:00;17.20;60.00
16441;DHT22;8330;-33.858;151.184;2023-06-19T06:32:32;17.10;61.30
16441;DHT22;8330;-33.858;151.184;2023-06-19T06:35:03;17.10;62.30
16441;DHT22;8330;-33.858;151.184;2023-06-19T06:37:34;17.00;62.50
16441;DHT22;8330;-33.858;151.184;2023-06-19T06:40:06;16.90;63.10
16441;DHT22;8330;-33.858;151.184;2023-06-19T06:42:42;16.90;62.70
16441;DHT22;8330;-33.858;151.184;2023-06-19T06:45:13;16.80;62.90
16441;DHT22;8330;-33.858;151.184;2023-06-19T06:47:45;16.80;63.10
16441;DHT22;8330;-33.858;151.184;2023-06-19T06:50:17;16.60;63.50
16441;DHT22;8330;-33.858;151.184;2023-06-19T06:52:49;16.60;63.40
16441;DHT22;8330;-33.858;151.184;2023-06-19T06:55:20;16.50;64.00
16441;DHT22;8330;-33.858;151.184;2023-06-19T06:57:58;16.40;64.40
16441;DHT22;8330;-33.858;151.184;2023-06-19T07:00:29;16.40;64.50
16441;DHT22;8330;-33.858;151.184;2023-06-19T07:03:01;16.40;65.10
16441;DHT22;8330;-33.858;151.184;2023-06-19T07:05:32;16.30;65.20
16441;DHT22;8330;-33.858;151.184;2023-06-19T07:08:04;16.30;65.80
16441;DHT22;8330;-33.858;151.184;2023-06-19T07:10:35;16.20;65.20
16441;DHT22;8330;-33.858;151.184;2023-06-19T07:13:08;16.30;66.30
16441;DHT22;8330;-33.858;151.184;2023-06-19T07:15:41;16.30;67.30
16441;DHT22;8330;-33.858;151.184;2023-06-19T07:18:14;16.20;67.80
16441;DHT22;8330;-33.858;151.184;2023-06-19T07:20:45;16.20;67.50
16441;DHT22;8330;-33.858;151.184;2023-06-19T07:23:16;16.10;69.00
16441;DHT22;8330;-33.858;151.184;2023-06-19T07:25:49;16.10;69.00
16441;DHT22;8330;-33.858;151.184;2023-06-19T07:28:22;16.00;69.70
16441;DHT22;8330;-33.858;151.184;2023-06-19T07:30:53;16.00;69.80
16441;DHT22;8330;-33.858;151.184;2023-06-19T07:33:24;16.00;69.70
16441;DHT22;8330;-33.858;151.184;2023-06-19T07:35:57;16.00;69.20
16441;DHT22;8330;-33.858;151.184;2023-06-19T07:38:30;15.90;70.00
16441;DHT22;8330;-33.858;151.184;2023-06-19T07:41:01;15.90;69.60
16441;DHT22;8330;-33.858;151.184;2023-06-19T07:43:37;15.90;70.00
16441;DHT22;8330;-33.858;151.184;2023-06-19T07:46:10;15.80;70.90
16441;DHT22;8330;-33.858;151.184;2023-06-19T07:48:43;15.70;70.30
16441;DHT22;8330;-33.858;151.184;2023-06-19T07:51:14;15.70;71.10
16441;DHT22;8330;-33.858;151.184;2023-06-19T07:53:45;15.70;71.30
16441;DHT22;8330;-33.858;151.184;2023-06-19T07:56:16;15.60;71.80
16441;DHT22;8330;-33.858;151.184;2023-06-19T07:58:51;15.60;72.20
16441;DHT22;8330;-33.858;151.184;2023-06-19T08:01:23;15.60;72.00
16441;DHT22;8330;-33.858;151.184;2023-06-19T08:03:55;15.50;73.40
16441;DHT22;8330;-33.858;151.184;2023-06-19T08:06:28;15.50;73.70
16441;DHT22;8330;-33.858;151.184;2023-06-19T08:09:01;15.40;73.30
16441;DHT22;8330;-33.858;151.184;2023-06-19T08:11:32;15.40;73.80
16441;DHT22;8330;-33.858;151.184;2023-06-19T08:14:17;15.30;73.50
16441;DHT22;8330;-33.858;151.184;2023-06-19T08:16:54;15.40;73.50
16441;DHT22;8330;-33.858;151.184;2023-06-19T08:19:25;15.20;73.70
16441;DHT22;8330;-33.858;151.184;2023-06-19T08:22:07;15.20;74.90
16441;DHT22;8330;-33.858;151.184;2023-06-19T08:24:39;15.20;73.90
16441;DHT22;8330;-33.858;151.184;2023-06-19T08:27:10;15.20;74.20
16441;DHT22;8330;-33.858;151.184;2023-06-19T08:29:44;15.20;74.60
16441;DHT22;8330;-33.858;151.184;2023-06-19T08:32:16;15.30;73.30
16441;DHT22;8330;-33.858;151.184;2023-06-19T08:34:48;15.20;74.00
16441;DHT22;8330;-33.858;151.184;2023-06-19T08:37:20;15.20;75.80
16441;DHT22;8330;-33.858;151.184;2023-06-19T08:39:52;15.20;74.70
16441;DHT22;8330;-33.858;151.184;2023-06-19T08:42:24;15.20;74.60
16441;DHT22;8330;-33.858;151.184;2023-06-19T08:44:57;15.10;76.10
16441;DHT22;8330;-33.858;151.184;2023-06-19T08:47:31;15.20;75.70
16441;DHT22;8330;-33.858;151.184;2023-06-19T08:50:04;15.20;76.00
16441;DHT22;8330;-33.858;151.184;2023-06-19T08:52:37;15.10;76.10
16441;DHT22;8330;-33.858;151.184;2023-06-19T08:55:09;15.20;76.20
16441;DHT22;8330;-33.858;151.184;2023-06-19T08:57:42;15.10;76.80
16441;DHT22;8330;-33.858;151.184;2023-06-19T09:00:47;15.10;77.20
16441;DHT22;8330;-33.858;151.184;2023-06-19T09:03:21;15.00;78.50
16441;DHT22;8330;-33.858;151.184;2023-06-19T09:05:55;15.00;78.20
16441;DHT22;8330;-33.858;151.184;2023-06-19T09:08:27;15.00;77.90
16441;DHT22;8330;-33.858;151.184;2023-06-19T09:11:00;14.90;78.50
16441;DHT22;8330;-33.858;151.184;2023-06-19T09:13:33;14.90;78.40
16441;DHT22;8330;-33.858;151.184;2023-06-19T09:16:07;14.80;79.10
16441;DHT22;8330;-33.858;151.184;2023-06-19T09:18:45;14.80;80.50
16441;DHT22;8330;-33.858;151.184;2023-06-19T09:21:19;14.80;80.60
16441;DHT22;8330;-33.858;151.184;2023-06-19T09:23:52;14.70;81.70
16441;DHT22;8330;-33.858;151.184;2023-06-19T09:26:23;14.80;82.50
16441;DHT22;8330;-33.858;151.184;2023-06-19T09:28:57;14.70;83.50
16441;DHT22;8330;-33.858;151.184;2023-06-19T09:31:35;14.70;83.90
16441;DHT22;8330;-33.858;151.184;2023-06-19T09:34:09;14.70;84.20
16441;DHT22;8330;-33.858;151.184;2023-06-19T09:36:45;14.70;84.30
16441;DHT22;8330;-33.858;151.184;2023-06-19T09:39:19;14.60;84.60
16441;DHT22;8330;-33.858;151.184;2023-06-19T09:41:52;14.50;84.70
16441;DHT22;8330;-33.858;151.184;2023-06-19T09:44:27;14.50;86.00
16441;DHT22;8330;-33.858;151.184;2023-06-19T09:47:05;14.50;85.70
16441;DHT22;8330;-33.858;151.184;2023-06-19T09:49:41;14.50;85.30
16441;DHT22;8330;-33.858;151.184;2023-06-19T09:52:12;14.50;84.20
16441;DHT22;8330;-33.858;151.184;2023-06-19T09:54:44;14.50;84.50
16441;DHT22;8330;-33.858;151.184;2023-06-19T09:57:19;14.50;82.80
16441;DHT22;8330;-33.858;151.184;2023-06-19T09:59:53;14.50;82.30
16441;DHT22;8330;-33.858;151.184;2023-06-19T10:02:33;14.60;83.30
16441;DHT22;8330;-33.858;151.184;2023-06-19T10:05:06;14.50;82.30
16441;DHT22;8330;-33.858;151.184;2023-06-19T10:07:42;14.60;82.20
16441;DHT22;8330;-33.858;151.184;2023-06-19T10:10:24;14.60;81.80
16441;DHT22;8330;-33.858;151.184;2023-06-19T10:12:57;14.70;81.50
16441;DHT22;8330;-33.858;151.184;2023-06-19T10:15:29;14.70;80.50
16441;DHT22;8330;-33.858;151.184;2023-06-19T10:18:04;14.70;81.10
16441;DHT22;8330;-33.858;151.184;2023-06-19T10:20:37;14.70;81.30
16441;DHT22;8330;-33.858;151.184;2023-06-19T10:23:14;14.80;80.90
16441;DHT22;8330;-33.858;151.184;2023-06-19T10:25:46;14.80;80.50
16441;DHT22;8330;-33.858;151.184;2023-06-19T10:28:20;14.80;81.10
16441;DHT22;8330;-33.858;151.184;2023-06-19T10:30:56;14.80;80.70
16441;DHT22;8330;-33.858;151.184;2023-06-19T10:33:35;14.80;80.20
16441;DHT22;8330;-33.858;151.184;2023-06-19T10:36:17;14.70;80.60
16441;DHT22;8330;-33.858;151.184;2023-06-19T10:38:50;14.70;81.20
16441;DHT22;8330;-33.858;151.184;2023-06-19T10:41:23;14.70;81.80
16441;DHT22;8330;-33.858;151.184;2023-06-19T10:44:06;14.70;81.50
16441;DHT22;8330;-33.858;151.184;2023-06-19T10:46:40;14.70;82.10
16441;DHT22;8330;-33.858;151.184;2023-06-19T10:49:24;14.70;84.70
16441;DHT22;8330;-33.858;151.184;2023-06-19T10:52:00;14.70;84.80
16441;DHT22;8330;-33.858;151.184;2023-06-19T10:54:38;14.70;83.10
16441;DHT22;8330;-33.858;151.184;2023-06-19T10:57:15;14.70;83.90
16441;DHT22;8330;-33.858;151.184;2023-06-19T10:59:51;14.60;84.40
16441;DHT22;8330;-33.858;151.184;2023-06-19T11:02:23;14.70;86.30
16441;DHT22;8330;-33.858;151.184;2023-06-19T11:05:02;14.70;84.50
16441;DHT22;8330;-33.858;151.184;2023-06-19T11:07:37;14.70;85.40
16441;DHT22;8330;-33.858;151.184;2023-06-19T11:10:20;14.70;85.00
16441;DHT22;8330;-33.858;151.184;2023-06-19T11:12:59;14.60;84.30
16441;DHT22;8330;-33.858;151.184;2023-06-19T11:15:34;14.50;84.30
16441;DHT22;8330;-33.858;151.184;2023-06-19T11:18:07;14.50;85.70
16441;DHT22;8330;-33.858;151.184;2023-06-19T11:20:50;14.50;86.70
16441;DHT22;8330;-33.858;151.184;2023-06-19T11:23:27;14.50;87.60
16441;DHT22;8330;-33.858;151.184;2023-06-19T11:26:04;14.50;88.00
16441;DHT22;8330;-33.858;151.184;2023-06-19T11:28:37;14.50;89.40
16441;DHT22;8330;-33.858;151.184;2023-06-19T11:31:08;14.40;88.80
16441;DHT22;8330;-33.858;151.184;2023-06-19T11:33:40;14.40;88.00
16441;DHT22;8330;-33.858;151.184;2023-06-19T11:36:20;14.40;87.60
16441;DHT22;8330;-33.858;151.184;2023-06-19T11:38:54;14.40;87.80
16441;DHT22;8330;-33.858;151.184;2023-06-19T11:41:28;14.30;87.10
16441;DHT22;8330;-33.858;151.184;2023-06-19T11:44:02;14.30;87.30
16441;DHT22;8330;-33.858;151.184;2023-06-19T11:46:35;14.30;87.30
16441;DHT22;8330;-33.858;151.184;2023-06-19T11:49:11;14.40;88.10
16441;DHT22;8330;-33.858;151.184;2023-06-19T11:51:48;14.30;88.60
16441;DHT22;8330;-33.858;151.184;2023-06-19T11:54:20;14.30;89.60
16441;DHT22;8330;-33.858;151.184;2023-06-19T11:56:55;14.20;90.10
16441;DHT22;8330;-33.858;151.184;2023-06-19T11:59:29;14.10;90.00
16441;DHT22;8330;-33.858;151.184;2023-06-19T12:02:02;14.20;90.20
16441;DHT22;8330;-33.858;151.184;2023-06-19T12:04:36;14.30;90.50
16441;DHT22;8330;-33.858;151.184;2023-06-19T12:07:09;14.20;90.90
16441;DHT22;8330;-33.858;151.184;2023-06-19T12:09:44;14.30;91.60
16441;DHT22;8330;-33.858;151.184;2023-06-19T12:12:15;14.20;91.00
16441;DHT22;8330;-33.858;151.184;2023-06-19T12:14:48;14.20;91.20
16441;DHT22;8330;-33.858;151.184;2023-06-19T12:17:23;14.10;90.60
16441;DHT22;8330;-33.858;151.184;2023-06-19T12:19:55;14.00;91.20
16441;DHT22;8330;-33.858;151.184;2023-06-19T12:22:33;14.00;91.10
16441;DHT22;8330;-33.858;151.184;2023-06-19T12:25:07;13.90;91.30
16441;DHT22;8330;-33.858;151.184;2023-06-19T12:27:40;13.90;91.90
16441;DHT22;8330;-33.858;151.184;2023-06-19T12:30:12;13.80;92.30
16441;DHT22;8330;-33.858;151.184;2023-06-19T12:32:43;13.70;93.00
16441;DHT22;8330;-33.858;151.184;2023-06-19T12:35:16;13.80;92.60
16441;DHT22;8330;-33.858;151.184;2023-06-19T12:37:49;13.70;93.10
16441;DHT22;8330;-33.858;151.184;2023-06-19T12:40:23;13.60;93.70
16441;DHT22;8330;-33.858;151.184;2023-06-19T12:42:54;13.60;93.60
16441;DHT22;8330;-33.858;151.184;2023-06-19T12:45:26;13.50;94.60
16441;DHT22;8330;-33.858;151.184;2023-06-19T12:47:57;13.50;94.60
16441;DHT22;8330;-33.858;151.184;2023-06-19T12:50:28;13.40;94.10
16441;DHT22;8330;-33.858;151.184;2023-06-19T12:53:01;13.30;93.80
16441;DHT22;8330;-33.858;151.184;2023-06-19T12:55:35;13.30;94.30
16441;DHT22;8330;-33.858;151.184;2023-06-19T12:58:08;13.40;94.40
16441;DHT22;8330;-33.858;151.184;2023-06-19T13:00:40;13.40;94.50
16441;DHT22;8330;-33.858;151.184;2023-06-19T13:03:11;13.40;94.50
16441;DHT22;8330;-33.858;151.184;2023-06-19T13:05:43;13.40;94.90
16441;DHT22;8330;-33.858;151.184;2023-06-19T13:08:18;13.40;95.10
16441;DHT22;8330;-33.858;151.184;2023-06-19T13:10:49;13.30;95.00
16441;DHT22;8330;-33.858;151.184;2023-06-19T13:13:22;13.30;95.10
16441;DHT22;8330;-33.858;151.184;2023-06-19T13:15:53;13.30;95.30
16441;DHT22;8330;-33.858;151.184;2023-06-19T13:18:24;13.30;95.40
16441;DHT22;8330;-33.858;151.184;2023-06-19T13:20:57;13.20;95.30
16441;DHT22;8330;-33.858;151.184;2023-06-19T13:23:31;13.10;94.20
16441;DHT22;8330;-33.858;151.184;2023-06-19T13:26:07;13.00;94.50
16441;DHT22;8330;-33.858;151.184;2023-06-19T13:28:40;12.90;95.10
16441;DHT22;8330;-33.858;151.184;2023-06-19T13:31:11;12.90;95.60
16441;DHT22;8330;-33.858;151.184;2023-06-19T13:33:42;12.90;95.70
16441;DHT22;8330;-33.858;151.184;2023-06-19T13:36:13;12.90;96.10
16441;DHT22;8330;-33.858;151.184;2023-06-19T13:38:51;12.90;96.30
16441;DHT22;8330;-33.858;151.184;2023-06-19T13:41:23;12.70;96.80
16441;DHT22;8330;-33.858;151.184;2023-06-19T13:43:58;12.70;97.30
16441;DHT22;8330;-33.858;151.184;2023-06-19T13:46:30;12.70;97.90
16441;DHT22;8330;-33.858;151.184;2023-06-19T13:49:02;12.70;98.10
16441;DHT22;8330;-33.858;151.184;2023-06-19T13:51:33;12.60;98.70
16441;DHT22;8330;-33.858;151.184;2023-06-19T13:54:07;12.60;99.00
16441;DHT22;8330;-33.858;151.184;2023-06-19T13:56:40;12.60;99.30
16441;DHT22;8330;-33.858;151.184;2023-06-19T13:59:11;12.60;99.30
16441;DHT22;8330;-33.858;151.184;2023-06-19T14:01:44;12.50;99.50
16441;DHT22;8330;-33.858;151.184;2023-06-19T14:04:15;12.50;99.90
16441;DHT22;8330;-33.858;151.184;2023-06-19T14:06:48;12.60;99.90
16441;DHT22;8330;-33.858;151.184;2023-06-19T14:09:22;12.60;99.90
16441;DHT22;8330;-33.858;151.184;2023-06-19T14:11:53;12.40;99.90
16441;DHT22;8330;-33.858;151.184;2023-06-19T14:14:24;12.40;99.90
16441;DHT22;8330;-33.858;151.184;2023-06-19T14:16:57;12.40;99.90
16441;DHT22;8330;-33.858;151.184;2023-06-19T14:19:30;12.40;99.90
16441;DHT22;8330;-33.858;151.184;2023-06-19T14:22:01;12.40;99.90
16441;DHT22;8330;-33.858;151.184;2023-06-19T14:24:34;12.40;99.90
16441;DHT22;8330;-33.858;151.184;2023-06-19T14:27:06;12.20;99.90
16441;DHT22;8330;-33.858;151.184;2023-06-19T14:29:37;12.10;99.90
16441;DHT22;8330;-33.858;151.184;2023-06-19T14:32:08;12.10;99.90
16441;DHT22;8330;-33.858;151.184;2023-06-19T14:34:40;12.20;99.90
16441;DHT22;8330;-33.858;151.184;2023-06-19T14:37:12;12.10;99.90
16441;DHT22;8330;-33.858;151.184;2023-06-19T14:39:45;12.00;99.90
16441;DHT22;8330;-33.858;151.184;2023-06-19T14:42:16;12.00;99.90
16441;DHT22;8330;-33.858;151.184;2023-06-19T14:44:47;12.10;99.90
16441;DHT22;8330;-33.858;151.184;2023-06-19T14:47:18;12.10;99.90
16441;DHT22;8330;-33.858;151.184;2023-06-19T14:49:49;12.00;99.90
16441;DHT22;8330;-33.858;151.184;2023-06-19T14:52:21;12.10;99.90
16441;DHT22;8330;-33.858;151.184;2023-06-19T14:54:54;12.20;99.90
16441;DHT22;8330;-33.858;151.184;2023-06-19T14:57:26;12.20;99.90
16441;DHT22;8330;-33.858;151.184;2023-06-19T14:59:57;12.30;99.90
16441;DHT22;8330;-33.858;151.184;2023-06-19T15:02:28;12.20;99.80
16441;DHT22;8330;-33.858;151.184;2023-06-19T15:04:59;12.10;99.50
16441;DHT22;8330;-33.858;151.184;2023-06-19T15:07:30;12.00;99.50
16441;DHT22;8330;-33.858;151.184;2023-06-19T15:10:03;11.90;98.70
16441;DHT22;8330;-33.858;151.184;2023-06-19T15:12:36;11.80;98.10
16441;DHT22;8330;-33.858;151.184;2023-06-19T15:15:08;11.80;97.90
16441;DHT22;8330;-33.858;151.184;2023-06-19T15:17:39;11.80;97.80
16441;DHT22;8330;-33.858;151.184;2023-06-19T15:20:10;11.80;97.60
16441;DHT22;8330;-33.858;151.184;2023-06-19T15:22:44;11.80;97.60
16441;DHT22;8330;-33.858;151.184;2023-06-19T15:25:17;11.70;97.90
16441;DHT22;8330;-33.858;151.184;2023-06-19T15:27:48;11.70;98.60
16441;DHT22;8330;-33.858;151.184;2023-06-19T15:30:20;11.60;98.70
16441;DHT22;8330;-33.858;151.184;2023-06-19T15:32:51;11.60;99.90
16441;DHT22;8330;-33.858;151.184;2023-06-19T15:35:22;11.50;99.90
16441;DHT22;8330;-33.858;151.184;2023-06-19T15:37:54;11.50;99.90